sensor_id;sensor_type;location;lat;lon;timestamp;P1;durP1;ratioP1;P2;durP2;ratioP2
26319;SDS011;14024;52.226;5.200;2023-05-28T00:00:10;31.73;;;8.07;;
26319;SDS011;14024;52.226;5.200;2023-05-28T00:02:37;29.75;;;9.60;;
26319;SDS011;14024;52.226;5.200;2023-05-28T00:05:03;28.88;;;9.10;;
26319;SDS011;14024;52.226;5.200;2023-05-28T00:07:30;34.38;;;9.15;;
26319;SDS011;14024;52.226;5.200;2023-05-28T00:09:56;30.88;;;8.57;;
26319;SDS011;14024;52.226;5.200;2023-05-28T00:12:22;26.45;;;9.18;;
26319;SDS011;14024;52.226;5.200;2023-05-28T00:14:48;25.50;;;9.30;;
26319;SDS011;14024;52.226;5.200;2023-05-28T00:17:15;27.10;;;8.40;;
26319;SDS011;14024;52.226;5.200;2023-05-28T00:19:41;30.30;;;10.55;;
26319;SDS011;14024;52.226;5.200;2023-05-28T00:22:08;23.25;;;8.40;;
26319;SDS011;14024;52.226;5.200;2023-05-28T00:24:34;21.92;;;7.97;;
26319;SDS011;14024;52.226;5.200;2023-05-28T00:27:00;35.38;;;11.30;;
26319;SDS011;14024;52.226;5.200;2023-05-28T00:29:26;23.25;;;8.75;;
26319;SDS011;14024;52.226;5.200;2023-05-28T00:31:52;27.60;;;8.60;;
26319;SDS011;14024;52.226;5.200;2023-05-28T00:34:22;31.45;;;9.40;;
26319;SDS011;14024;52.226;5.200;2023-05-28T00:36:48;22.92;;;8.75;;
26319;SDS011;14024;52.226;5.200;2023-05-28T00:39:15;29.17;;;9.43;;
26319;SDS011;14024;52.226;5.200;2023-05-28T00:41:41;28.63;;;8.73;;
26319;SDS011;14024;52.226;5.200;2023-05-28T00:44:07;30.23;;;10.40;;
26319;SDS011;14024;52.226;5.200;2023-05-28T00:46:40;26.85;;;8.93;;
26319;SDS011;14024;52.226;5.200;2023-05-28T00:49:06;24.10;;;8.63;;
26319;SDS011;14024;52.226;5.200;2023-05-28T00:51:32;34.75;;;9.43;;
26319;SDS011;14024;52.226;5.200;2023-05-28T00:53:58;20.98;;;9.85;;
26319;SDS011;14024;52.226;5.200;2023-05-28T00:56:25;26.80;;;9.48;;
26319;SDS011;14024;52.226;5.200;2023-05-28T00:58:51;27.92;;;8.70;;
26319;SDS011;14024;52.226;5.200;2023-05-28T01:01:18;28.67;;;8.82;;
26319;SDS011;14024;52.226;5.200;2023-05-28T01:03:44;32.17;;;9.73;;
26319;SDS011;14024;52.226;5.200;2023-05-28T01:06:12;24.88;;;8.85;;
26319;SDS011;14024;52.226;5.200;2023-05-28T01:08:42;28.20;;;9.85;;
26319;SDS011;14024;52.226;5.200;2023-05-28T01:11:19;27.13;;;10.13;;
26319;SDS011;14024;52.226;5.200;2023-05-28T01:13:46;25.23;;;9.23;;
26319;SDS011;14024;52.226;5.200;2023-05-28T01:16:13;30.10;;;9.25;;
26319;SDS011;14024;52.226;5.200;2023-05-28T01:18:39;27.42;;;8.73;;
26319;SDS011;14024;52.226;5.200;2023-05-28T01:21:06;28.23;;;9.45;;
26319;SDS011;14024;52.226;5.200;2023-05-28T01:23:43;28.92;;;9.75;;
26319;SDS011;14024;52.226;5.200;2023-05-28T01:26:10;23.15;;;9.00;;
26319;SDS011;14024;52.226;5.200;2023-05-28T01:28:37;28.27;;;10.25;;
26319;SDS011;14024;52.226;5.200;2023-05-28T01:31:10;28.75;;;8.90;;
26319;SDS011;14024;52.226;5.200;2023-05-28T01:33:36;30.88;;;10.02;;
26319;SDS011;14024;52.226;5.200;2023-05-28T01:36:04;28.70;;;9.65;;
26319;SDS011;14024;52.226;5.200;2023-05-28T01:38:32;24.85;;;10.95;;
26319;SDS011;14024;52.226;5.200;2023-05-28T01:40:58;32.30;;;10.13;;
26319;SDS011;14024;52.226;5.200;2023-05-28T01:43:25;28.13;;;9.68;;
26319;SDS011;14024;52.226;5.200;2023-05-28T01:45:51;22.60;;;8.70;;
26319;SDS011;14024;52.226;5.200;2023-05-28T01:48:17;25.95;;;9.63;;
26319;SDS011;14024;52.226;5.200;2023-05-28T01:50:43;34.42;;;10.90;;
26319;SDS011;14024;52.226;5.200;2023-05-28T01:53:09;25.15;;;9.82;;
26319;SDS011;14024;52.226;5.200;2023-05-28T01:55:35;29.33;;;8.55;;
26319;SDS011;14024;52.226;5.200;2023-05-28T01:58:01;30.95;;;10.30;;
26319;SDS011;14024;52.226;5.200;2023-05-28T02:00:28;30.73;;;8.88;;
26319;SDS011;14024;52.226;5.200;2023-05-28T02:02:54;26.92;;;9.63;;
26319;SDS011;14024;52.226;5.200;2023-05-28T02:05:20;23.83;;;10.27;;
26319;SDS011;14024;52.226;5.200;2023-05-28T02:07:45;27.08;;;9.13;;
26319;SDS011;14024;52.226;5.200;2023-05-28T02:10:11;38.22;;;11.35;;
26319;SDS011;14024;52.226;5.200;2023-05-28T02:12:37;24.20;;;9.48;;
26319;SDS011;14024;52.226;5.200;2023-05-28T02:15:04;29.20;;;9.40;;
26319;SDS011;14024;52.226;5.200;2023-05-28T02:17:30;21.67;;;8.93;;
26319;SDS011;14024;52.226;5.200;2023-05-28T02:19:56;25.20;;;9.80;;
26319;SDS011;14024;52.226;5.200;2023-05-28T02:22:22;30.15;;;9.57;;
26319;SDS011;14024;52.226;5.200;2023-05-28T02:24:48;30.38;;;10.95;;
26319;SDS011;14024;52.226;5.200;2023-05-28T02:27:14;32.80;;;9.65;;
26319;SDS011;14024;52.226;5.200;2023-05-28T02:29:41;29.73;;;10.50;;
26319;SDS011;14024;52.226;5.200;2023-05-28T02:32:08;34.53;;;10.13;;
26319;SDS011;14024;52.226;5.200;2023-05-28T02:34:34;28.33;;;9.85;;
26319;SDS011;14024;52.226;5.200;2023-05-28T02:37:00;26.27;;;9.93;;
26319;SDS011;14024;52.226;5.200;2023-05-28T02:39:27;34.47;;;9.68;;
26319;SDS011;14024;52.226;5.200;2023-05-28T02:41:53;24.92;;;9.82;;
26319;SDS011;14024;52.226;5.200;2023-05-28T02:44:19;30.35;;;9.80;;
26319;SDS011;14024;52.226;5.200;2023-05-28T02:46:45;26.23;;;9.40;;
26319;SDS011;14024;52.226;5.200;2023-05-28T02:49:11;30.35;;;9.65;;
26319;SDS011;14024;52.226;5.200;2023-05-28T02:51:37;27.33;;;9.05;;
26319;SDS011;14024;52.226;5.200;2023-05-28T02:54:03;35.03;;;10.25;;
26319;SDS011;14024;52.226;5.200;2023-05-28T02:56:29;33.00;;;9.25;;
26319;SDS011;14024;52.226;5.200;2023-05-28T02:58:55;23.63;;;9.18;;
26319;SDS011;14024;52.226;5.200;2023-05-28T03:01:22;30.05;;;9.50;;
26319;SDS011;14024;52.226;5.200;2023-05-28T03:03:48;33.10;;;10.32;;
26319;SDS011;14024;52.226;5.200;2023-05-28T03:06:14;27.58;;;9.75;;
26319;SDS011;14024;52.226;5.200;2023-05-28T03:08:41;26.08;;;8.77;;
26319;SDS011;14024;52.226;5.200;2023-05-28T03:11:07;28.77;;;9.77;;
26319;SDS011;14024;52.226;5.200;2023-05-28T03:13:32;23.05;;;9.35;;
26319;SDS011;14024;52.226;5.200;2023-05-28T03:15:58;28.52;;;9.57;;
26319;SDS011;14024;52.226;5.200;2023-05-28T03:18:24;34.25;;;10.43;;
26319;SDS011;14024;52.226;5.200;2023-05-28T03:20:50;29.33;;;10.15;;
26319;SDS011;14024;52.226;5.200;2023-05-28T03:23:16;29.73;;;9.32;;
26319;SDS011;14024;52.226;5.200;2023-05-28T03:25:42;23.48;;;9.55;;
26319;SDS011;14024;52.226;5.200;2023-05-28T03:28:08;29.05;;;9.57;;
26319;SDS011;14024;52.226;5.200;2023-05-28T03:30:34;24.67;;;9.82;;
26319;SDS011;14024;52.226;5.200;2023-05-28T03:33:00;23.52;;;10.00;;
26319;SDS011;14024;52.226;5.200;2023-05-28T03:35:26;31.40;;;9.50;;
26319;SDS011;14024;52.226;5.200;2023-05-28T03:37:52;26.52;;;10.02;;
26319;SDS011;14024;52.226;5.200;2023-05-28T03:40:18;24.85;;;8.88;;
26319;SDS011;14024;52.226;5.200;2023-05-28T03:42:44;28.35;;;8.80;;
26319;SDS011;14024;52.226;5.200;2023-05-28T03:45:10;27.02;;;10.27;;
26319;SDS011;14024;52.226;5.200;2023-05-28T03:47:36;24.08;;;9.50;;
26319;SDS011;14024;52.226;5.200;2023-05-28T03:50:02;33.20;;;9.73;;
26319;SDS011;14024;52.226;5.200;2023-05-28T03:52:32;21.33;;;9.43;;
26319;SDS011;14024;52.226;5.200;2023-05-28T03:54:58;24.20;;;9.15;;
26319;SDS011;14024;52.226;5.200;2023-05-28T03:57:24;23.15;;;9.48;;
26319;SDS011;14024;52.226;5.200;2023-05-28T03:59:50;20.90;;;8.10;;
26319;SDS011;14024;52.226;5.200;2023-05-28T04:02:16;28.92;;;9.50;;
26319;SDS011;14024;52.226;5.200;2023-05-28T04:04:42;26.33;;;10.82;;
26319;SDS011;14024;52.226;5.200;2023-05-28T04:07:08;24.10;;;9.95;;
26319;SDS011;14024;52.226;5.200;2023-05-28T04:09:34;25.77;;;9.27;;
26319;SDS011;14024;52.226;5.200;2023-05-28T04:12:00;28.45;;;10.07;;
26319;SDS011;14024;52.226;5.200;2023-05-28T04:14:26;30.98;;;9.65;;
26319;SDS011;14024;52.226;5.200;2023-05-28T04:16:52;21.55;;;8.85;;
26319;SDS011;14024;52.226;5.200;2023-05-28T04:19:18;22.50;;;8.60;;
26319;SDS011;14024;52.226;5.200;2023-05-28T04:21:44;27.25;;;9.93;;
26319;SDS011;14024;52.226;5.200;2023-05-28T04:24:10;25.98;;;8.93;;
26319;SDS011;14024;52.226;5.200;2023-05-28T04:26:36;29.95;;;8.98;;
26319;SDS011;14024;52.226;5.200;2023-05-28T04:29:02;24.60;;;10.10;;
26319;SDS011;14024;52.226;5.200;2023-05-28T04:31:28;24.77;;;8.88;;
26319;SDS011;14024;52.226;5.200;2023-05-28T04:33:54;27.33;;;9.35;;
26319;SDS011;14024;52.226;5.200;2023-05-28T04:36:20;19.55;;;9.10;;
26319;SDS011;14024;52.226;5.200;2023-05-28T04:38:54;21.58;;;8.70;;
26319;SDS011;14024;52.226;5.200;2023-05-28T04:41:22;26.17;;;9.35;;
26319;SDS011;14024;52.226;5.200;2023-05-28T04:43:48;31.70;;;8.88;;
26319;SDS011;14024;52.226;5.200;2023-05-28T04:46:14;31.75;;;10.13;;
26319;SDS011;14024;52.226;5.200;2023-05-28T04:48:41;22.60;;;8.50;;
26319;SDS011;14024;52.226;5.200;2023-05-28T04:51:07;25.02;;;9.48;;
26319;SDS011;14024;52.226;5.200;2023-05-28T04:53:33;29.13;;;9.77;;
26319;SDS011;14024;52.226;5.200;2023-05-28T04:55:59;23.90;;;9.55;;
26319;SDS011;14024;52.226;5.200;2023-05-28T04:58:25;25.90;;;10.25;;
26319;SDS011;14024;52.226;5.200;2023-05-28T05:00:51;26.73;;;10.27;;
26319;SDS011;14024;52.226;5.200;2023-05-28T05:03:18;29.42;;;8.95;;
26319;SDS011;14024;52.226;5.200;2023-05-28T05:05:44;32.13;;;10.27;;
26319;SDS011;14024;52.226;5.200;2023-05-28T05:08:10;31.40;;;9.88;;
26319;SDS011;14024;52.226;5.200;2023-05-28T05:10:38;30.25;;;10.90;;
26319;SDS011;14024;52.226;5.200;2023-05-28T05:13:05;29.48;;;9.90;;
26319;SDS011;14024;52.226;5.200;2023-05-28T05:15:31;36.13;;;10.90;;
26319;SDS011;14024;52.226;5.200;2023-05-28T05:17:57;33.90;;;10.52;;
26319;SDS011;14024;52.226;5.200;2023-05-28T05:20:23;34.13;;;10.48;;
26319;SDS011;14024;52.226;5.200;2023-05-28T05:22:49;27.00;;;9.52;;
26319;SDS011;14024;52.226;5.200;2023-05-28T05:25:15;25.70;;;9.20;;
26319;SDS011;14024;52.226;5.200;2023-05-28T05:27:41;27.73;;;8.98;;
26319;SDS011;14024;52.226;5.200;2023-05-28T05:30:08;30.20;;;10.88;;
26319;SDS011;14024;52.226;5.200;2023-05-28T05:32:34;24.75;;;8.93;;
26319;SDS011;14024;52.226;5.200;2023-05-28T05:35:00;29.58;;;10.13;;
26319;SDS011;14024;52.226;5.200;2023-05-28T05:37:26;32.47;;;11.32;;
26319;SDS011;14024;52.226;5.200;2023-05-28T05:39:52;31.65;;;10.27;;
26319;SDS011;14024;52.226;5.200;2023-05-28T05:42:18;28.73;;;9.75;;
26319;SDS011;14024;52.226;5.200;2023-05-28T05:44:44;32.70;;;10.57;;
26319;SDS011;14024;52.226;5.200;2023-05-28T05:47:10;24.10;;;10.20;;
26319;SDS011;14024;52.226;5.200;2023-05-28T05:49:36;28.98;;;10.10;;
26319;SDS011;14024;52.226;5.200;2023-05-28T05:52:02;41.95;;;10.30;;
26319;SDS011;14024;52.226;5.200;2023-05-28T05:54:28;27.85;;;10.05;;
26319;SDS011;14024;52.226;5.200;2023-05-28T05:56:54;25.63;;;9.40;;
26319;SDS011;14024;52.226;5.200;2023-05-28T05:59:20;31.58;;;10.35;;
26319;SDS011;14024;52.226;5.200;2023-05-28T06:01:46;26.40;;;9.52;;
26319;SDS011;14024;52.226;5.200;2023-05-28T06:04:12;29.02;;;8.10;;
26319;SDS011;14024;52.226;5.200;2023-05-28T06:06:38;25.48;;;9.80;;
26319;SDS011;14024;52.226;5.200;2023-05-28T06:09:05;25.58;;;9.68;;
26319;SDS011;14024;52.226;5.200;2023-05-28T06:11:31;31.80;;;9.70;;
26319;SDS011;14024;52.226;5.200;2023-05-28T06:13:57;26.05;;;9.07;;
26319;SDS011;14024;52.226;5.200;2023-05-28T06:16:23;30.42;;;9.85;;
26319;SDS011;14024;52.226;5.200;2023-05-28T06:18:50;33.25;;;10.40;;
26319;SDS011;14024;52.226;5.200;2023-05-28T06:21:16;28.95;;;10.50;;
26319;SDS011;14024;52.226;5.200;2023-05-28T06:23:43;19.50;;;8.35;;
26319;SDS011;14024;52.226;5.200;2023-05-28T06:26:09;28.35;;;10.50;;
26319;SDS011;14024;52.226;5.200;2023-05-28T06:28:34;23.52;;;9.52;;
26319;SDS011;14024;52.226;5.200;2023-05-28T06:31:01;29.25;;;9.23;;
26319;SDS011;14024;52.226;5.200;2023-05-28T06:33:28;26.10;;;9.15;;
26319;SDS011;14024;52.226;5.200;2023-05-28T06:35:54;18.85;;;7.32;;
26319;SDS011;14024;52.226;5.200;2023-05-28T06:38:20;34.58;;;9.27;;
26319;SDS011;14024;52.226;5.200;2023-05-28T06:40:46;28.17;;;7.80;;
26319;SDS011;14024;52.226;5.200;2023-05-28T06:43:12;22.83;;;8.43;;
26319;SDS011;14024;52.226;5.200;2023-05-28T06:45:38;26.13;;;8.60;;
26319;SDS011;14024;52.226;5.200;2023-05-28T06:48:04;24.00;;;8.68;;
26319;SDS011;14024;52.226;5.200;2023-05-28T06:50:30;19.63;;;7.85;;
26319;SDS011;14024;52.226;5.200;2023-05-28T06:52:56;28.13;;;10.30;;
26319;SDS011;14024;52.226;5.200;2023-05-28T06:55:23;19.38;;;8.52;;
26319;SDS011;14024;52.226;5.200;2023-05-28T06:57:49;22.95;;;8.95;;
26319;SDS011;14024;52.226;5.200;2023-05-28T07:00:15;26.35;;;8.45;;
26319;SDS011;14024;52.226;5.200;2023-05-28T07:02:42;28.98;;;9.68;;
26319;SDS011;14024;52.226;5.200;2023-05-28T07:05:08;29.58;;;8.38;;
26319;SDS011;14024;52.226;5.200;2023-05-28T07:07:34;22.58;;;8.45;;
26319;SDS011;14024;52.226;5.200;2023-05-28T07:10:02;20.73;;;8.55;;
26319;SDS011;14024;52.226;5.200;2023-05-28T07:12:28;23.98;;;8.77;;
26319;SDS011;14024;52.226;5.200;2023-05-28T07:14:54;25.38;;;9.13;;
26319;SDS011;14024;52.226;5.200;2023-05-28T07:17:20;20.42;;;8.65;;
26319;SDS011;14024;52.226;5.200;2023-05-28T07:19:47;18.98;;;7.95;;
26319;SDS011;14024;52.226;5.200;2023-05-28T07:22:13;28.48;;;9.45;;
26319;SDS011;14024;52.226;5.200;2023-05-28T07:24:39;29.63;;;9.23;;
26319;SDS011;14024;52.226;5.200;2023-05-28T07:27:05;23.65;;;8.45;;
26319;SDS011;14024;52.226;5.200;2023-05-28T07:29:32;21.20;;;8.68;;
26319;SDS011;14024;52.226;5.200;2023-05-28T07:31:58;25.63;;;8.63;;
26319;SDS011;14024;52.226;5.200;2023-05-28T07:34:24;23.35;;;8.70;;
26319;SDS011;14024;52.226;5.200;2023-05-28T07:36:50;26.95;;;9.48;;
26319;SDS011;14024;52.226;5.200;2023-05-28T07:39:15;19.00;;;8.23;;
26319;SDS011;14024;52.226;5.200;2023-05-28T07:41:41;20.92;;;7.78;;
26319;SDS011;14024;52.226;5.200;2023-05-28T07:44:07;27.25;;;7.63;;
26319;SDS011;14024;52.226;5.200;2023-05-28T07:46:34;17.30;;;6.82;;
26319;SDS011;14024;52.226;5.200;2023-05-28T07:49:00;27.20;;;8.38;;
26319;SDS011;14024;52.226;5.200;2023-05-28T07:51:27;35.75;;;10.82;;
26319;SDS011;14024;52.226;5.200;2023-05-28T07:53:53;21.45;;;7.90;;
26319;SDS011;14024;52.226;5.200;2023-05-28T07:56:22;20.75;;;8.07;;
26319;SDS011;14024;52.226;5.200;2023-05-28T07:58:48;20.95;;;7.18;;
26319;SDS011;14024;52.226;5.200;2023-05-28T08:01:14;26.00;;;8.23;;
26319;SDS011;14024;52.226;5.200;2023-05-28T08:03:40;23.70;;;8.13;;
26319;SDS011;14024;52.226;5.200;2023-05-28T08:06:06;28.08;;;8.20;;
26319;SDS011;14024;52.226;5.200;2023-05-28T08:08:33;21.67;;;7.88;;
26319;SDS011;14024;52.226;5.200;2023-05-28T08:11:00;21.30;;;8.10;;
26319;SDS011;14024;52.226;5.200;2023-05-28T08:13:26;21.33;;;8.35;;
26319;SDS011;14024;52.226;5.200;2023-05-28T08:15:52;19.15;;;7.65;;
26319;SDS011;14024;52.226;5.200;2023-05-28T08:18:18;21.90;;;7.68;;
26319;SDS011;14024;52.226;5.200;2023-05-28T08:20:44;20.30;;;8.10;;
26319;SDS011;14024;52.226;5.200;2023-05-28T08:23:10;18.50;;;8.30;;
26319;SDS011;14024;52.226;5.200;2023-05-28T08:25:36;27.98;;;7.90;;
26319;SDS011;14024;52.226;5.200;2023-05-28T08:28:02;18.05;;;6.68;;
26319;SDS011;14024;52.226;5.200;2023-05-28T08:30:29;22.73;;;8.27;;
26319;SDS011;14024;52.226;5.200;2023-05-28T08:32:56;25.25;;;7.55;;
26319;SDS011;14024;52.226;5.200;2023-05-28T08:35:22;23.58;;;8.10;;
26319;SDS011;14024;52.226;5.200;2023-05-28T08:37:48;22.33;;;8.68;;
26319;SDS011;14024;52.226;5.200;2023-05-28T08:40:14;23.27;;;7.50;;
26319;SDS011;14024;52.226;5.200;2023-05-28T08:42:40;22.17;;;7.13;;
26319;SDS011;14024;52.226;5.200;2023-05-28T08:45:06;27.65;;;8.15;;
26319;SDS011;14024;52.226;5.200;2023-05-28T08:47:33;23.00;;;7.97;;
26319;SDS011;14024;52.226;5.200;2023-05-28T08:50:05;23.38;;;7.70;;
26319;SDS011;14024;52.226;5.200;2023-05-28T08:52:32;18.00;;;7.47;;
26319;SDS011;14024;52.226;5.200;2023-05-28T08:54:58;20.13;;;7.85;;
26319;SDS011;14024;52.226;5.200;2023-05-28T08:57:25;17.13;;;7.25;;
26319;SDS011;14024;52.226;5.200;2023-05-28T08:59:52;15.45;;;6.88;;
26319;SDS011;14024;52.226;5.200;2023-05-28T09:02:25;23.85;;;8.13;;
26319;SDS011;14024;52.226;5.200;2023-05-28T09:04:51;22.55;;;8.23;;
26319;SDS011;14024;52.226;5.200;2023-05-28T09:07:18;17.90;;;6.57;;
26319;SDS011;14024;52.226;5.200;2023-05-28T09:09:44;19.73;;;7.03;;
26319;SDS011;14024;52.226;5.200;2023-05-28T09:12:19;20.67;;;6.93;;
26319;SDS011;14024;52.226;5.200;2023-05-28T09:14:45;25.20;;;8.45;;
26319;SDS011;14024;52.226;5.200;2023-05-28T09:17:11;18.00;;;7.03;;
26319;SDS011;14024;52.226;5.200;2023-05-28T09:19:38;19.02;;;7.85;;
26319;SDS011;14024;52.226;5.200;2023-05-28T09:22:05;18.02;;;8.02;;
26319;SDS011;14024;52.226;5.200;2023-05-28T09:24:31;19.13;;;8.05;;
26319;SDS011;14024;52.226;5.200;2023-05-28T09:26:58;19.52;;;6.90;;
26319;SDS011;14024;52.226;5.200;2023-05-28T09:29:25;18.30;;;8.07;;
26319;SDS011;14024;52.226;5.200;2023-05-28T09:31:55;17.88;;;7.55;;
26319;SDS011;14024;52.226;5.200;2023-05-28T09:34:25;21.98;;;7.53;;
26319;SDS011;14024;52.226;5.200;2023-05-28T09:36:52;24.60;;;8.93;;
26319;SDS011;14024;52.226;5.200;2023-05-28T09:39:19;19.40;;;7.35;;
26319;SDS011;14024;52.226;5.200;2023-05-28T09:41:57;24.33;;;7.30;;
26319;SDS011;14024;52.226;5.200;2023-05-28T09:44:29;22.27;;;7.13;;
26319;SDS011;14024;52.226;5.200;2023-05-28T09:46:55;17.60;;;7.32;;
26319;SDS011;14024;52.226;5.200;2023-05-28T09:49:21;23.05;;;7.53;;
26319;SDS011;14024;52.226;5.200;2023-05-28T09:51:47;18.73;;;6.70;;
26319;SDS011;14024;52.226;5.200;2023-05-28T09:54:16;25.70;;;7.90;;
26319;SDS011;14024;52.226;5.200;2023-05-28T09:56:43;22.10;;;7.55;;
26319;SDS011;14024;52.226;5.200;2023-05-28T09:59:12;18.10;;;6.82;;
26319;SDS011;14024;52.226;5.200;2023-05-28T10:01:40;18.48;;;6.65;;
26319;SDS011;14024;52.226;5.200;2023-05-28T10:04:10;19.90;;;7.25;;
26319;SDS011;14024;52.226;5.200;2023-05-28T10:06:39;19.23;;;6.57;;
26319;SDS011;14024;52.226;5.200;2023-05-28T10:09:06;21.60;;;7.82;;
26319;SDS011;14024;52.226;5.200;2023-05-28T10:11:38;20.08;;;7.15;;
26319;SDS011;14024;52.226;5.200;2023-05-28T10:14:05;20.05;;;7.85;;
26319;SDS011;14024;52.226;5.200;2023-05-28T10:16:32;21.10;;;7.05;;
26319;SDS011;14024;52.226;5.200;2023-05-28T10:18:58;21.90;;;7.10;;
26319;SDS011;14024;52.226;5.200;2023-05-28T10:21:25;22.38;;;7.30;;
26319;SDS011;14024;52.226;5.200;2023-05-28T10:23:51;22.48;;;8.40;;
26319;SDS011;14024;52.226;5.200;2023-05-28T10:26:17;22.70;;;7.82;;
26319;SDS011;14024;52.226;5.200;2023-05-28T10:28:44;15.55;;;7.15;;
26319;SDS011;14024;52.226;5.200;2023-05-28T10:31:10;18.77;;;7.45;;
26319;SDS011;14024;52.226;5.200;2023-05-28T10:33:43;26.63;;;8.15;;
26319;SDS011;14024;52.226;5.200;2023-05-28T10:36:16;15.30;;;7.55;;
26319;SDS011;14024;52.226;5.200;2023-05-28T10:41:09;20.38;;;7.88;;
26319;SDS011;14024;52.226;5.200;2023-05-28T10:46:54;17.88;;;7.38;;
26319;SDS011;14024;52.226;5.200;2023-05-28T10:51:42;28.98;;;7.90;;
26319;SDS011;14024;52.226;5.200;2023-05-28T10:54:15;21.55;;;7.80;;
26319;SDS011;14024;52.226;5.200;2023-05-28T10:57:15;25.63;;;9.27;;
26319;SDS011;14024;52.226;5.200;2023-05-28T10:59:39;18.10;;;7.88;;
26319;SDS011;14024;52.226;5.200;2023-05-28T11:02:08;20.58;;;8.13;;
26319;SDS011;14024;52.226;5.200;2023-05-28T11:04:35;18.58;;;8.05;;
26319;SDS011;14024;52.226;5.200;2023-05-28T11:07:01;19.60;;;8.02;;
26319;SDS011;14024;52.226;5.200;2023-05-28T11:09:27;20.27;;;8.10;;
26319;SDS011;14024;52.226;5.200;2023-05-28T11:11:57;19.92;;;7.80;;
26319;SDS011;14024;52.226;5.200;2023-05-28T11:14:28;16.45;;;8.25;;
26319;SDS011;14024;52.226;5.200;2023-05-28T11:16:54;21.85;;;9.18;;
26319;SDS011;14024;52.226;5.200;2023-05-28T11:19:20;26.90;;;9.40;;
26319;SDS011;14024;52.226;5.200;2023-05-28T11:21:52;15.55;;;7.75;;
26319;SDS011;14024;52.226;5.200;2023-05-28T11:24:20;17.10;;;7.65;;
26319;SDS011;14024;52.226;5.200;2023-05-28T11:26:46;21.67;;;7.63;;
26319;SDS011;14024;52.226;5.200;2023-05-28T11:29:12;18.63;;;8.65;;
26319;SDS011;14024;52.226;5.200;2023-05-28T11:31:40;21.13;;;8.18;;
26319;SDS011;14024;52.226;5.200;2023-05-28T11:34:06;22.63;;;7.50;;
26319;SDS011;14024;52.226;5.200;2023-05-28T11:36:42;26.88;;;7.38;;
26319;SDS011;14024;52.226;5.200;2023-05-28T11:39:09;15.32;;;7.60;;
26319;SDS011;14024;52.226;5.200;2023-05-28T11:41:35;20.38;;;8.00;;
26319;SDS011;14024;52.226;5.200;2023-05-28T11:44:01;23.80;;;8.00;;
26319;SDS011;14024;52.226;5.200;2023-05-28T11:46:27;18.23;;;7.85;;
26319;SDS011;14024;52.226;5.200;2023-05-28T11:48:54;22.00;;;8.50;;
26319;SDS011;14024;52.226;5.200;2023-05-28T11:51:20;22.05;;;8.27;;
26319;SDS011;14024;52.226;5.200;2023-05-28T11:53:46;19.27;;;8.40;;
26319;SDS011;14024;52.226;5.200;2023-05-28T11:56:12;21.90;;;8.88;;
26319;SDS011;14024;52.226;5.200;2023-05-28T11:58:43;19.40;;;8.73;;
26319;SDS011;14024;52.226;5.200;2023-05-28T12:01:12;25.38;;;8.38;;
26319;SDS011;14024;52.226;5.200;2023-05-28T12:03:40;20.20;;;8.32;;
26319;SDS011;14024;52.226;5.200;2023-05-28T12:06:07;19.95;;;9.10;;
26319;SDS011;14024;52.226;5.200;2023-05-28T12:08:33;20.95;;;9.93;;
26319;SDS011;14024;52.226;5.200;2023-05-28T12:11:00;16.95;;;7.03;;
26319;SDS011;14024;52.226;5.200;2023-05-28T12:13:33;19.67;;;8.45;;
26319;SDS011;14024;52.226;5.200;2023-05-28T12:16:06;15.27;;;8.60;;
26319;SDS011;14024;52.226;5.200;2023-05-28T12:18:32;22.08;;;7.25;;
26319;SDS011;14024;52.226;5.200;2023-05-28T12:20:58;17.30;;;8.07;;
26319;SDS011;14024;52.226;5.200;2023-05-28T12:23:24;17.48;;;7.78;;
26319;SDS011;14024;52.226;5.200;2023-05-28T12:25:51;19.13;;;7.97;;
26319;SDS011;14024;52.226;5.200;2023-05-28T12:28:21;17.05;;;7.05;;
26319;SDS011;14024;52.226;5.200;2023-05-28T12:30:49;21.50;;;7.78;;
26319;SDS011;14024;52.226;5.200;2023-05-28T12:33:17;18.33;;;6.80;;
26319;SDS011;14024;52.226;5.200;2023-05-28T12:35:44;17.90;;;6.93;;
26319;SDS011;14024;52.226;5.200;2023-05-28T12:38:12;17.35;;;7.75;;
26319;SDS011;14024;52.226;5.200;2023-05-28T12:40:38;17.73;;;7.28;;
26319;SDS011;14024;52.226;5.200;2023-05-28T12:43:05;15.43;;;8.02;;
26319;SDS011;14024;52.226;5.200;2023-05-28T12:45:31;13.85;;;6.82;;
26319;SDS011;14024;52.226;5.200;2023-05-28T12:47:59;15.60;;;7.25;;
26319;SDS011;14024;52.226;5.200;2023-05-28T12:50:25;12.35;;;6.57;;
26319;SDS011;14024;52.226;5.200;2023-05-28T12:52:51;13.60;;;6.53;;
26319;SDS011;14024;52.226;5.200;2023-05-28T12:55:17;17.65;;;7.25;;
26319;SDS011;14024;52.226;5.200;2023-05-28T12:57:44;20.23;;;7.45;;
26319;SDS011;14024;52.226;5.200;2023-05-28T13:00:10;16.33;;;6.93;;
26319;SDS011;14024;52.226;5.200;2023-05-28T13:02:38;18.92;;;6.70;;
26319;SDS011;14024;52.226;5.200;2023-05-28T13:05:06;14.93;;;6.13;;
26319;SDS011;14024;52.226;5.200;2023-05-28T13:07:32;15.40;;;6.53;;
26319;SDS011;14024;52.226;5.200;2023-05-28T13:09:58;13.10;;;6.70;;
26319;SDS011;14024;52.226;5.200;2023-05-28T13:12:24;13.18;;;6.47;;
26319;SDS011;14024;52.226;5.200;2023-05-28T13:14:50;14.88;;;6.68;;
26319;SDS011;14024;52.226;5.200;2023-05-28T13:17:17;12.23;;;6.43;;
26319;SDS011;14024;52.226;5.200;2023-05-28T13:19:45;12.43;;;6.38;;
26319;SDS011;14024;52.226;5.200;2023-05-28T13:22:11;12.73;;;6.53;;
26319;SDS011;14024;52.226;5.200;2023-05-28T13:24:37;12.48;;;6.60;;
26319;SDS011;14024;52.226;5.200;2023-05-28T13:27:03;11.27;;;6.32;;
26319;SDS011;14024;52.226;5.200;2023-05-28T13:29:29;11.00;;;6.28;;
26319;SDS011;14024;52.226;5.200;2023-05-28T13:31:56;13.30;;;6.85;;
26319;SDS011;14024;52.226;5.200;2023-05-28T13:34:22;14.48;;;7.00;;
26319;SDS011;14024;52.226;5.200;2023-05-28T13:36:48;11.95;;;7.05;;
26319;SDS011;14024;52.226;5.200;2023-05-28T13:39:14;16.10;;;7.20;;
26319;SDS011;14024;52.226;5.200;2023-05-28T13:41:40;12.15;;;6.80;;
26319;SDS011;14024;52.226;5.200;2023-05-28T13:44:07;11.63;;;7.03;;
26319;SDS011;14024;52.226;5.200;2023-05-28T13:46:34;14.15;;;7.32;;
26319;SDS011;14024;52.226;5.200;2023-05-28T13:49:02;16.80;;;7.10;;
26319;SDS011;14024;52.226;5.200;2023-05-28T13:51:28;13.18;;;7.00;;
26319;SDS011;14024;52.226;5.200;2023-05-28T13:53:55;12.57;;;6.45;;
26319;SDS011;14024;52.226;5.200;2023-05-28T13:56:21;14.30;;;6.85;;
26319;SDS011;14024;52.226;5.200;2023-05-28T13:58:49;10.50;;;6.35;;
26319;SDS011;14024;52.226;5.200;2023-05-28T14:01:15;17.48;;;7.43;;
26319;SDS011;14024;52.226;5.200;2023-05-28T14:03:41;10.90;;;5.65;;
26319;SDS011;14024;52.226;5.200;2023-05-28T14:06:10;12.55;;;6.80;;
26319;SDS011;14024;52.226;5.200;2023-05-28T14:08:36;11.73;;;5.85;;
26319;SDS011;14024;52.226;5.200;2023-05-28T14:11:02;11.18;;;6.10;;
26319;SDS011;14024;52.226;5.200;2023-05-28T14:13:28;14.32;;;6.00;;
26319;SDS011;14024;52.226;5.200;2023-05-28T14:15:57;11.98;;;5.90;;
26319;SDS011;14024;52.226;5.200;2023-05-28T14:18:23;10.43;;;5.00;;
26319;SDS011;14024;52.226;5.200;2023-05-28T14:20:50;9.13;;;4.75;;
26319;SDS011;14024;52.226;5.200;2023-05-28T14:23:16;12.23;;;4.75;;
26319;SDS011;14024;52.226;5.200;2023-05-28T14:25:42;11.60;;;5.22;;
26319;SDS011;14024;52.226;5.200;2023-05-28T14:28:10;11.10;;;4.78;;
26319;SDS011;14024;52.226;5.200;2023-05-28T14:30:36;10.13;;;5.00;;
26319;SDS011;14024;52.226;5.200;2023-05-28T14:33:02;11.25;;;4.55;;
26319;SDS011;14024;52.226;5.200;2023-05-28T14:35:29;12.50;;;4.50;;
26319;SDS011;14024;52.226;5.200;2023-05-28T14:37:55;9.93;;;4.25;;